SBOSBO MIA / KMIA
Speedbird OnlineSpeedbird Online MIA / KMIA

Miami International Airport
22:51 23°C

Location Miami, United States
Latitude: 25.79319953918457
Longitude: -80.29060363769531
Web Airport Website | Wikipedia
Altitude 2 Meter / 8 Feet
Distance 7,149 KM / 4,442 Miles
from London.
Time Zone UTC -5 hours (America/New_York)
Codes IATA: MIA
ICAO: KMIA
Currency £1 equals USD 1.22
Runways
RunwayLength (m)Surface
08L2621Asphalt
08R3202Asphalt
093962Asphalt
122851Asphalt
26L3202Asphalt
26R2621Asphalt
273962Asphalt
302851Asphalt
Radio
TypeDescriptionFrequency
APPAPP120.5
ATISATIS119.15
CLDCLNC DEL120.35
DEPDEP119.45
GNDGND121.8
TWRTWR118.3
UNICUNICOM123
Live ATC
METAR KMIA 070253Z 02003KT 10SM FEW045 24/18 A3020 RMK AO2 SLP225 T02390178 51011 $
TAF KMIA 070301Z 0703/0806 VRB04KT P6SM FEW030 FM071500 08011KT P6SM FEW030 SCT050 FM080300 06005KT P6SM FEW050
Weather As Of 06 Dec 2022 22:51
Description Few clouds
Wind 7 km/h from North (10°)
Cloud Cover 20%
Precipitation Rain: none, Snow: none
Sunrise 06:54
Sunset 17:30
Lounges Global (Turkish Airlines) Lounge, Central Terminal
American Airlines Flagship Lounge, North Terminal
American Airlines Admirals Club , North Terminal
American Airlines Admirals Club, North Terminal
LATAM VIP Lounge TEMPORARILY CLOSED, South Terminal
Rotations During the last 90 days there were
173 flights from LHR
1 flights from LGW
176 flights to LHR
1 flights to LGW


© 2017-2022 Speedbird Online